createdAt,value
2018-12-15T00:00:47.516Z,89.41
2018-12-15T00:03:15.938Z,88.85
2018-12-15T00:05:43.566Z,88.81
2018-12-15T00:08:12.112Z,89.22
2018-12-15T00:10:40.559Z,89.13
2018-12-15T00:13:08.174Z,88.65
2018-12-15T00:15:36.717Z,88.85
2018-12-15T00:18:05.250Z,88.11
2018-12-15T00:20:33.793Z,88.76
2018-12-15T00:23:03.495Z,89.15
2018-12-15T00:25:32.734Z,88.79
2018-12-15T00:28:02.443Z,89.29
2018-12-15T00:30:31.219Z,89.28
2018-12-15T00:32:59.782Z,88.96
2018-12-15T00:35:28.340Z,88.45
2018-12-15T00:37:55.959Z,88.68
2018-12-15T00:40:23.658Z,87.98
2018-12-15T00:42:51.387Z,87.68
2018-12-15T00:45:19.926Z,87.75
2018-12-15T00:47:48.504Z,87.67
2018-12-15T00:50:17.050Z,87.67
2018-12-15T00:52:45.506Z,87.38
2018-12-15T00:55:14.059Z,87.37
2018-12-15T00:57:41.732Z,87.39
2018-12-15T01:00:10.309Z,87.09
2018-12-15T01:02:38.774Z,87.70
2018-12-15T01:05:06.482Z,87.45
2018-12-15T01:07:35.265Z,87.46
2018-12-15T01:10:04.418Z,87.60
2018-12-15T01:12:33.055Z,87.55
2018-12-15T01:15:01.442Z,86.78
2018-12-15T01:17:29.064Z,86.20
2018-12-15T01:19:56.726Z,86.37
2018-12-15T01:22:24.361Z,86.81
2018-12-15T01:24:52.982Z,86.58
2018-12-15T01:27:21.515Z,87.35
2018-12-15T01:29:49.904Z,87.09
2018-12-15T01:32:18.328Z,87.09
2018-12-15T01:34:45.954Z,86.88
2018-12-15T01:37:13.580Z,87.07
2018-12-15T01:39:41.201Z,86.97
2018-12-15T01:42:08.865Z,87.32
2018-12-15T01:44:36.497Z,87.82
2018-12-15T01:47:04.183Z,87.08
2018-12-15T01:49:32.930Z,86.85
2018-12-15T01:52:00.561Z,86.72
2018-12-15T01:54:28.186Z,85.49
2018-12-15T01:56:55.814Z,85.53
2018-12-15T01:59:23.428Z,84.38
2018-12-15T02:01:51.052Z,84.02
2018-12-15T02:04:18.675Z,84.84
2018-12-15T02:06:46.302Z,84.80
2018-12-15T02:09:13.946Z,85.31
2018-12-15T02:11:41.565Z,84.76
2018-12-15T02:14:09.223Z,85.12
2018-12-15T02:16:36.846Z,84.61
2018-12-15T02:19:04.501Z,84.48
2018-12-15T02:21:32.975Z,83.93
2018-12-15T02:24:01.854Z,84.11
2018-12-15T02:26:30.429Z,84.55
2018-12-15T02:28:59.007Z,84.19
2018-12-15T02:31:27.568Z,84.13
2018-12-15T02:33:56.137Z,83.23
2018-12-15T02:36:23.753Z,84.13
2018-12-15T02:38:51.381Z,84.59
2018-12-15T02:41:19.957Z,83.77
2018-12-15T02:43:48.422Z,84.25
2018-12-15T02:46:16.871Z,82.96
2018-12-15T02:48:45.253Z,83.71
2018-12-15T02:51:13.767Z,83.96
2018-12-15T02:53:41.385Z,82.63
2018-12-15T02:56:09.804Z,83.18
2018-12-15T02:58:38.354Z,83.22
2018-12-15T03:01:06.903Z,84.06
2018-12-15T03:03:35.288Z,83.39
2018-12-15T03:06:03.764Z,82.53
2018-12-15T03:08:31.545Z,83.41
2018-12-15T03:11:02.238Z,82.07
2018-12-15T03:13:29.871Z,80.70
2018-12-15T03:15:58.461Z,82.12
2018-12-15T03:18:26.990Z,83.07
2018-12-15T03:21:01.309Z,83.02
2018-12-15T03:23:31.161Z,82.06
2018-12-15T03:25:59.586Z,81.90
2018-12-15T03:28:28.057Z,81.83
2018-12-15T03:30:55.709Z,81.86
2018-12-15T03:33:24.192Z,81.62
2018-12-15T03:35:51.851Z,80.06
2018-12-15T03:38:20.249Z,81.78
2018-12-15T03:40:47.935Z,81.84
2018-12-15T03:43:15.712Z,81.31
2018-12-15T03:45:44.252Z,80.61
2018-12-15T03:48:12.746Z,80.57
2018-12-15T03:50:41.286Z,81.32
2018-12-15T03:53:09.644Z,82.17
2018-12-15T03:55:37.304Z,81.90
2018-12-15T03:58:04.924Z,81.04
2018-12-15T04:00:34.550Z,80.10
2018-12-15T04:03:03.155Z,79.54
2018-12-15T04:05:31.637Z,80.08
2018-12-15T04:08:01.274Z,80.29
2018-12-15T04:10:29.814Z,81.61
2018-12-15T04:12:58.472Z,81.45
2018-12-15T04:15:26.256Z,82.26
2018-12-15T04:17:53.912Z,82.09
2018-12-15T04:20:22.338Z,81.57
2018-12-15T04:22:49.997Z,81.53
2018-12-15T04:25:18.593Z,82.24
2018-12-15T04:27:47.171Z,82.77
2018-12-15T04:30:15.597Z,81.66
2018-12-15T04:32:45.286Z,81.49
2018-12-15T04:35:13.985Z,82.63
2018-12-15T04:37:42.499Z,83.40
2018-12-15T04:40:11.134Z,82.11
2018-12-15T04:42:39.588Z,81.37
2018-12-15T04:45:08.033Z,81.98
2018-12-15T04:47:35.712Z,80.54
2018-12-15T04:50:04.264Z,81.87
2018-12-15T04:52:32.529Z,82.59
2018-12-15T04:55:01.805Z,81.73
2018-12-15T04:57:29.436Z,81.40
2018-12-15T04:59:57.050Z,81.85
2018-12-15T05:02:24.753Z,82.31
2018-12-15T05:04:52.386Z,82.62
2018-12-15T05:07:20.007Z,82.30
2018-12-15T05:09:47.634Z,82.52
2018-12-15T05:12:15.268Z,82.51
2018-12-15T05:14:42.902Z,82.29
2018-12-15T05:17:10.535Z,82.15
2018-12-15T05:19:38.160Z,81.71
2018-12-15T05:22:05.966Z,82.02
2018-12-15T05:24:33.600Z,81.75
2018-12-15T05:27:02.538Z,81.10
2018-12-15T05:29:31.795Z,81.64
2018-12-15T05:31:59.421Z,81.52
2018-12-15T05:34:27.051Z,82.96
2018-12-15T05:36:55.393Z,81.73
2018-12-15T05:39:23.026Z,82.01
2018-12-15T05:41:50.647Z,82.07
2018-12-15T05:44:18.275Z,83.13
2018-12-15T05:46:45.933Z,82.41
2018-12-15T05:49:13.557Z,82.97
2018-12-15T05:51:41.185Z,83.41
2018-12-15T05:54:08.809Z,83.70
2018-12-15T05:56:36.507Z,83.31
2018-12-15T05:59:04.344Z,83.45
2018-12-15T06:01:32.647Z,83.31
2018-12-15T06:04:00.644Z,82.09
2018-12-15T06:06:28.300Z,82.70
2018-12-15T06:08:55.942Z,82.58
2018-12-15T06:11:23.608Z,82.43
2018-12-15T06:13:51.245Z,83.29
2018-12-15T06:16:18.886Z,83.72
2018-12-15T06:18:46.505Z,84.29
2018-12-15T06:21:15.116Z,83.75
2018-12-15T06:23:42.732Z,84.42
2018-12-15T06:26:11.173Z,83.43
2018-12-15T06:28:39.839Z,83.32
2018-12-15T06:31:08.330Z,83.67
2018-12-15T06:33:36.874Z,84.44
2018-12-15T06:36:05.416Z,84.32
2018-12-15T06:38:33.954Z,85.14
2018-12-15T06:41:03.478Z,85.18
2018-12-15T06:43:32.133Z,84.64
2018-12-15T06:46:01.540Z,85.31
2018-12-15T06:48:29.160Z,85.61
2018-12-15T06:50:56.790Z,85.80
2018-12-15T06:53:24.455Z,85.30
2018-12-15T06:55:52.155Z,85.44
2018-12-15T06:58:19.926Z,84.44
2018-12-15T07:00:47.555Z,84.96
2018-12-15T07:03:15.418Z,84.76
2018-12-15T07:05:43.874Z,84.18
2018-12-15T07:08:11.509Z,84.47
2018-12-15T07:10:39.134Z,84.79
2018-12-15T07:13:06.800Z,85.20
2018-12-15T07:15:34.425Z,84.69
2018-12-15T07:18:02.169Z,84.36
2018-12-15T07:20:29.809Z,84.57
2018-12-15T07:22:57.470Z,85.07
2018-12-15T07:25:26.102Z,86.09
2018-12-15T07:27:54.002Z,85.76
2018-12-15T07:30:22.070Z,85.29
2018-12-15T07:32:49.806Z,85.45
2018-12-15T07:35:18.274Z,85.51
2018-12-15T07:37:45.922Z,85.32
2018-12-15T07:40:14.345Z,85.67
2018-12-15T07:42:42.040Z,86.09
2018-12-15T07:45:10.566Z,85.17
2018-12-15T07:47:38.994Z,85.15
2018-12-15T07:50:06.774Z,84.97
2018-12-15T07:52:35.262Z,85.02
2018-12-15T07:55:02.932Z,84.71
2018-12-15T07:57:31.161Z,84.24
2018-12-15T07:59:59.636Z,84.92
2018-12-15T08:02:27.280Z,85.07
2018-12-15T08:04:54.909Z,84.72
2018-12-15T08:07:22.525Z,84.01
2018-12-15T08:09:50.851Z,84.06
2018-12-15T08:15:23.452Z,83.85
2018-12-15T08:17:51.082Z,84.06
2018-12-15T08:20:19.557Z,83.98
2018-12-15T08:22:47.166Z,83.22
2018-12-15T08:25:15.597Z,83.84
2018-12-15T08:27:43.251Z,83.80
2018-12-15T08:30:11.030Z,84.03
2018-12-15T08:32:38.656Z,84.47
2018-12-15T08:35:06.423Z,83.14
2018-12-15T08:37:34.099Z,83.11
2018-12-15T08:40:02.784Z,83.28
2018-12-15T08:42:30.618Z,83.67
2018-12-15T08:45:01.277Z,83.28
2018-12-15T08:47:28.914Z,83.37
2018-12-15T08:49:56.549Z,83.87
2018-12-15T08:52:24.187Z,83.91
2018-12-15T08:54:51.807Z,83.49
2018-12-15T08:57:27.872Z,84.79
2018-12-15T08:59:55.503Z,83.75
2018-12-15T09:02:23.114Z,84.28
2018-12-15T09:04:50.797Z,83.70
2018-12-15T09:07:18.424Z,83.78
2018-12-15T09:09:46.052Z,84.13
2018-12-15T09:12:13.715Z,84.46
2018-12-15T09:14:41.344Z,84.08
2018-12-15T09:17:09.015Z,84.27
2018-12-15T09:19:36.635Z,83.26
2018-12-15T09:22:11.394Z,82.44
2018-12-15T09:24:34.011Z,82.76
2018-12-15T09:27:03.615Z,82.31
2018-12-15T09:29:32.966Z,81.93
2018-12-15T09:32:00.617Z,81.63
2018-12-15T09:34:28.284Z,82.02
2018-12-15T09:36:56.710Z,82.62
2018-12-15T09:39:24.407Z,82.87
2018-12-15T09:41:52.028Z,82.57
2018-12-15T09:44:20.589Z,82.81
2018-12-15T09:46:48.249Z,82.73
2018-12-15T09:49:17.958Z,82.24
2018-12-15T09:51:45.558Z,81.96
2018-12-15T09:54:14.070Z,82.20
2018-12-15T09:56:42.549Z,81.95
2018-12-15T09:59:10.185Z,82.38
2018-12-15T10:01:37.881Z,82.20
2018-12-15T10:04:05.579Z,82.50
2018-12-15T10:06:33.196Z,82.60
2018-12-15T10:09:01.799Z,82.13
2018-12-15T10:11:30.018Z,82.47
2018-12-15T10:13:58.428Z,83.32
2018-12-15T10:16:26.136Z,83.20
2018-12-15T10:18:53.810Z,82.94
2018-12-15T10:21:21.457Z,83.40
2018-12-15T10:23:50.055Z,83.28
2018-12-15T10:26:17.679Z,83.49
2018-12-15T10:28:45.356Z,83.94
2018-12-15T10:31:19.434Z,84.41
2018-12-15T10:33:47.092Z,83.87
2018-12-15T10:36:14.721Z,84.00
2018-12-15T10:38:43.284Z,83.92
2018-12-15T10:41:10.908Z,84.20
2018-12-15T10:43:38.526Z,83.84
2018-12-15T10:46:06.155Z,83.25
2018-12-15T10:48:34.167Z,83.46
2018-12-15T10:51:03.187Z,83.53
2018-12-15T10:53:31.307Z,83.14
2018-12-15T10:56:01.115Z,82.82
2018-12-15T10:58:28.775Z,83.01
2018-12-15T11:00:57.202Z,82.95
2018-12-15T11:03:24.862Z,83.41
2018-12-15T11:05:53.420Z,82.60
2018-12-15T11:08:21.079Z,82.28
2018-12-15T11:10:48.712Z,82.64
2018-12-15T11:13:16.339Z,82.95
2018-12-15T11:15:43.961Z,84.32
2018-12-15T11:18:12.394Z,83.29
2018-12-15T11:20:40.910Z,82.88
2018-12-15T11:23:08.528Z,83.08
2018-12-15T11:25:36.203Z,83.18
2018-12-15T11:28:03.911Z,82.14
2018-12-15T11:30:33.490Z,81.68
2018-12-15T11:33:02.621Z,82.07
2018-12-15T11:35:30.835Z,82.23
2018-12-15T11:37:58.465Z,81.76
2018-12-15T11:40:26.125Z,81.65
2018-12-15T11:42:53.769Z,81.10
2018-12-15T11:45:21.408Z,81.00
2018-12-15T11:47:49.047Z,80.95
2018-12-15T11:50:16.692Z,80.33
2018-12-15T11:52:45.120Z,80.56
2018-12-15T11:55:12.827Z,81.00
2018-12-15T11:57:40.474Z,80.45
2018-12-15T12:00:08.573Z,80.42
2018-12-15T12:02:36.236Z,79.96
2018-12-15T12:05:06.045Z,79.17
2018-12-15T12:07:34.491Z,79.74
2018-12-15T12:10:02.119Z,78.80
2018-12-15T12:12:29.751Z,78.97
2018-12-15T12:14:57.367Z,78.03
2018-12-15T12:17:25.877Z,79.45
2018-12-15T12:19:53.517Z,78.83
2018-12-15T12:22:21.145Z,79.73
2018-12-15T12:24:49.740Z,78.57
2018-12-15T12:27:17.337Z,78.54
2018-12-15T12:29:44.979Z,79.64
2018-12-15T12:32:13.543Z,78.35
2018-12-15T12:34:42.127Z,78.22
2018-12-15T12:37:09.745Z,77.66
2018-12-15T12:39:38.197Z,77.32
2018-12-15T12:42:06.609Z,77.46
2018-12-15T12:44:35.212Z,78.76
2018-12-15T12:47:03.881Z,78.46
2018-12-15T12:49:31.595Z,78.92
2018-12-15T12:51:59.235Z,78.95
2018-12-15T12:54:27.853Z,79.37
2018-12-15T12:56:55.479Z,79.99
2018-12-15T12:59:24.072Z,79.40
2018-12-15T13:01:52.771Z,79.73
2018-12-15T13:04:21.270Z,78.93
2018-12-15T13:06:49.708Z,78.96
2018-12-15T13:09:17.336Z,78.87
2018-12-15T13:11:44.960Z,79.31
2018-12-15T13:14:12.617Z,79.88
2018-12-15T13:16:40.832Z,79.68
2018-12-15T13:19:08.518Z,80.50
2018-12-15T13:21:36.178Z,80.62
2018-12-15T13:24:03.900Z,80.70
2018-12-15T13:26:33.338Z,80.46
2018-12-15T13:29:02.773Z,81.31
2018-12-15T13:31:32.789Z,81.10
2018-12-15T13:34:02.001Z,81.18
2018-12-15T13:36:29.723Z,81.09
2018-12-15T13:38:58.239Z,80.63
2018-12-15T13:41:25.868Z,81.08
2018-12-15T13:43:55.515Z,81.40
2018-12-15T13:46:23.168Z,81.61
2018-12-15T13:48:51.751Z,81.96
2018-12-15T13:51:19.416Z,82.40
2018-12-15T13:53:47.839Z,81.84
2018-12-15T13:56:15.499Z,82.03
2018-12-15T13:58:43.847Z,82.83
2018-12-15T14:01:12.430Z,82.33
2018-12-15T14:03:40.208Z,83.12
2018-12-15T14:06:08.849Z,83.30
2018-12-15T14:08:36.468Z,83.42
2018-12-15T14:11:04.209Z,82.88
2018-12-15T14:13:32.683Z,82.99
2018-12-15T14:16:01.665Z,83.06
2018-12-15T14:18:29.292Z,82.88
2018-12-15T14:20:57.745Z,82.09
2018-12-15T14:23:26.170Z,82.36
2018-12-15T14:25:53.798Z,82.56
2018-12-15T14:28:22.346Z,82.75
2018-12-15T14:30:49.973Z,82.79
2018-12-15T14:33:18.385Z,83.00
2018-12-15T14:35:46.012Z,83.91
2018-12-15T14:38:13.672Z,84.11
2018-12-15T14:40:42.265Z,83.96
2018-12-15T14:43:09.917Z,84.49
2018-12-15T14:45:37.584Z,84.33
2018-12-15T14:48:06.149Z,84.95
2018-12-15T14:50:34.729Z,85.40
2018-12-15T14:53:03.269Z,85.48
2018-12-15T14:55:31.187Z,84.40
2018-12-15T14:57:59.728Z,84.34
2018-12-15T15:00:27.349Z,85.07
2018-12-15T15:02:54.980Z,84.88
2018-12-15T15:05:22.666Z,85.78
2018-12-15T15:07:50.306Z,85.30
2018-12-15T15:10:18.774Z,85.81
2018-12-15T15:12:46.402Z,85.57
2018-12-15T15:15:14.023Z,85.70
2018-12-15T15:17:41.650Z,85.97
2018-12-15T15:20:10.231Z,86.04
2018-12-15T15:22:37.916Z,86.37
2018-12-15T15:25:06.218Z,85.44
2018-12-15T15:27:33.848Z,85.97
2018-12-15T15:30:01.484Z,86.74
2018-12-15T15:32:29.101Z,87.10
2018-12-15T15:34:56.725Z,87.80
2018-12-15T15:37:25.136Z,86.79
2018-12-15T15:39:52.759Z,86.95
2018-12-15T15:42:20.386Z,87.61
2018-12-15T15:44:48.819Z,87.22
2018-12-15T15:47:17.394Z,87.07
2018-12-15T15:49:45.036Z,86.71
2018-12-15T15:52:13.472Z,87.07
2018-12-15T15:54:41.078Z,86.73
2018-12-15T15:57:09.418Z,86.73
2018-12-15T15:59:37.843Z,86.85
2018-12-15T16:02:05.595Z,87.02
2018-12-15T16:04:34.132Z,86.83
2018-12-15T16:07:02.783Z,87.67
2018-12-15T16:09:30.411Z,88.40
2018-12-15T16:11:58.890Z,89.01
2018-12-15T16:14:27.366Z,89.81
2018-12-15T16:16:55.969Z,90.18
2018-12-15T16:19:24.551Z,89.45
2018-12-15T16:21:53.112Z,89.28
2018-12-15T16:24:21.666Z,89.15
2018-12-15T16:26:50.094Z,89.27
2018-12-15T16:29:18.520Z,89.71
2018-12-15T16:31:47.077Z,89.98
2018-12-15T16:34:15.518Z,89.83
2018-12-15T16:36:43.151Z,89.29
2018-12-15T16:39:10.875Z,89.28
2018-12-15T16:41:42.206Z,88.79
2018-12-15T16:44:09.006Z,88.50
2018-12-15T16:46:37.544Z,88.50
2018-12-15T16:49:06.211Z,88.94
2018-12-15T16:51:34.686Z,89.44
2018-12-15T16:54:03.092Z,89.47
2018-12-15T16:56:31.665Z,89.59
2018-12-15T16:58:59.268Z,89.29
2018-12-15T17:01:26.985Z,88.99
2018-12-15T17:03:54.827Z,89.25
2018-12-15T17:06:22.467Z,88.99
2018-12-15T17:08:50.769Z,88.58
2018-12-15T17:11:18.404Z,89.27
2018-12-15T17:13:46.030Z,89.70
2018-12-15T17:16:13.648Z,89.83
2018-12-15T17:18:41.273Z,89.15
2018-12-15T17:21:08.900Z,89.37
2018-12-15T17:23:36.523Z,89.68
2018-12-15T17:26:04.238Z,89.38
2018-12-15T17:28:32.679Z,89.84
2018-12-15T17:31:00.586Z,90.86
2018-12-15T17:33:28.199Z,90.04
2018-12-15T17:35:55.826Z,89.53
2018-12-15T17:38:23.442Z,89.14
2018-12-15T17:40:51.863Z,89.26
2018-12-15T17:43:19.501Z,88.97
2018-12-15T17:45:47.124Z,88.82
2018-12-15T17:48:14.743Z,89.41
2018-12-15T17:50:42.375Z,89.49
2018-12-15T17:53:09.990Z,89.79
2018-12-15T17:55:37.614Z,90.19
2018-12-15T17:58:05.232Z,90.17
2018-12-15T18:00:32.872Z,90.73
2018-12-15T18:03:00.511Z,90.89
2018-12-15T18:05:28.160Z,90.96
2018-12-15T18:07:55.785Z,91.25
2018-12-15T18:10:23.412Z,91.07
2018-12-15T18:12:51.039Z,91.10
2018-12-15T18:15:18.664Z,91.91
2018-12-15T18:17:46.278Z,91.02
2018-12-15T18:20:13.974Z,90.39
2018-12-15T18:22:41.603Z,90.48
2018-12-15T18:25:09.240Z,90.55
2018-12-15T18:27:36.863Z,90.56
2018-12-15T18:30:07.028Z,90.20
2018-12-15T18:32:34.654Z,89.97
2018-12-15T18:35:03.313Z,90.25
2018-12-15T18:37:31.894Z,90.49
2018-12-15T18:39:59.517Z,90.94
2018-12-15T18:42:27.149Z,91.59
2018-12-15T18:44:54.775Z,91.21
2018-12-15T18:47:22.404Z,91.36
2018-12-15T18:49:50.028Z,91.33
2018-12-15T18:52:17.701Z,91.06
2018-12-15T18:54:45.343Z,90.85
2018-12-15T18:57:12.975Z,90.74
2018-12-15T18:59:40.616Z,90.86
2018-12-15T19:02:08.378Z,91.12
2018-12-15T19:04:36.088Z,90.57
2018-12-15T19:07:04.589Z,90.65
2018-12-15T19:09:33.134Z,90.60
2018-12-15T19:12:01.413Z,91.27
2018-12-15T19:14:29.037Z,91.61
2018-12-15T19:16:56.673Z,91.37
2018-12-15T19:19:24.354Z,91.21
2018-12-15T19:21:52.163Z,91.05
2018-12-15T19:24:20.716Z,90.91
2018-12-15T19:26:49.278Z,90.64
2018-12-15T19:29:16.899Z,90.83
2018-12-15T19:31:44.540Z,91.20
2018-12-15T19:34:17.469Z,90.79
2018-12-15T19:36:41.829Z,90.60
2018-12-15T19:39:09.454Z,90.80
2018-12-15T19:41:37.085Z,90.34
2018-12-15T19:44:05.643Z,91.01
2018-12-15T19:46:33.259Z,91.35
2018-12-15T19:49:01.648Z,91.25
2018-12-15T19:51:29.730Z,91.25
2018-12-15T19:53:57.634Z,91.69
2018-12-15T19:56:25.263Z,91.19
2018-12-15T19:58:52.900Z,91.93
2018-12-15T20:01:21.451Z,91.60
2018-12-15T20:03:50.020Z,92.00
2018-12-15T20:06:18.124Z,92.13
2018-12-15T20:08:45.851Z,92.61
2018-12-15T20:11:13.490Z,92.62
2018-12-15T20:13:41.130Z,91.97
2018-12-15T20:16:09.579Z,92.05
2018-12-15T20:18:37.589Z,92.02
2018-12-15T20:21:05.286Z,92.19
2018-12-15T20:23:32.908Z,92.03
2018-12-15T20:26:00.541Z,91.61
2018-12-15T20:28:28.164Z,91.68
2018-12-15T20:30:55.802Z,91.99
2018-12-15T20:33:23.427Z,92.61
2018-12-15T20:35:51.093Z,92.43
2018-12-15T20:38:18.719Z,92.41
2018-12-15T20:40:46.333Z,91.80
2018-12-15T20:43:13.953Z,91.56
2018-12-15T20:45:41.587Z,91.68
2018-12-15T20:48:09.225Z,92.21
2018-12-15T20:50:36.867Z,92.36
2018-12-15T20:53:04.496Z,91.87
2018-12-15T20:55:32.848Z,92.05
2018-12-15T20:58:01.944Z,91.84
2018-12-15T21:00:29.737Z,91.37
2018-12-15T21:02:57.850Z,91.20
2018-12-15T21:05:25.498Z,91.40
2018-12-15T21:07:53.127Z,91.87
2018-12-15T21:10:20.913Z,92.27
2018-12-15T21:12:48.698Z,92.80
2018-12-15T21:15:18.833Z,92.50
2018-12-15T21:17:46.578Z,91.96
2018-12-15T21:20:14.527Z,91.35
2018-12-15T21:22:42.187Z,91.81
2018-12-15T21:25:09.801Z,92.68
2018-12-15T21:27:37.422Z,92.63
2018-12-15T21:30:08.282Z,92.16
2018-12-15T21:32:37.205Z,91.88
2018-12-15T21:35:05.917Z,92.31
2018-12-15T21:37:34.334Z,92.16
2018-12-15T21:40:02.797Z,92.22
2018-12-15T21:42:31.861Z,92.22
2018-12-15T21:44:59.659Z,92.70
2018-12-15T21:47:27.300Z,92.69
2018-12-15T21:49:55.866Z,92.72
2018-12-15T21:52:23.576Z,92.67
2018-12-15T21:54:51.233Z,92.69
2018-12-15T21:57:19.011Z,92.15
2018-12-15T21:59:47.361Z,92.09
2018-12-15T22:02:14.985Z,91.93
2018-12-15T22:04:42.604Z,92.36
2018-12-15T22:07:11.169Z,91.91
2018-12-15T22:09:38.795Z,92.56
2018-12-15T22:12:07.264Z,92.98
2018-12-15T22:14:34.904Z,92.98
2018-12-15T22:17:04.049Z,93.12
2018-12-15T22:19:31.676Z,92.90
2018-12-15T22:22:02.946Z,92.87
2018-12-15T22:24:29.927Z,92.70
2018-12-15T22:26:57.551Z,92.13
2018-12-15T22:29:25.177Z,91.77
2018-12-15T22:31:52.811Z,92.02
2018-12-15T22:34:20.477Z,92.55
2018-12-15T22:36:49.001Z,92.57
2018-12-15T22:39:17.004Z,92.34
2018-12-15T22:41:44.624Z,92.82
2018-12-15T22:44:14.420Z,92.49
2018-12-15T22:46:43.179Z,92.47
2018-12-15T22:49:11.601Z,93.01
2018-12-15T22:51:39.245Z,92.54
2018-12-15T22:54:07.788Z,92.41
2018-12-15T22:56:35.410Z,92.43
2018-12-15T22:59:03.099Z,92.54
2018-12-15T23:01:32.709Z,92.50
2018-12-15T23:04:00.338Z,92.45
2018-12-15T23:06:28.013Z,93.22
2018-12-15T23:08:55.640Z,93.21
2018-12-15T23:11:24.230Z,93.13
2018-12-15T23:13:51.867Z,93.47
2018-12-15T23:16:20.294Z,93.09
2018-12-15T23:18:47.919Z,93.57
2018-12-15T23:21:16.462Z,93.32
2018-12-15T23:23:44.087Z,92.91
2018-12-15T23:26:12.549Z,92.75
2018-12-15T23:28:41.123Z,93.25
2018-12-15T23:31:08.738Z,93.05
2018-12-15T23:33:36.414Z,92.81
2018-12-15T23:36:04.041Z,92.36
2018-12-15T23:38:31.711Z,92.95
2018-12-15T23:41:01.795Z,92.62
2018-12-15T23:43:30.353Z,92.49
2018-12-15T23:45:58.857Z,92.26
2018-12-15T23:48:27.393Z,91.80
2018-12-15T23:50:55.856Z,92.60
2018-12-15T23:53:23.497Z,92.07
2018-12-15T23:55:52.140Z,92.41
2018-12-15T23:58:19.763Z,92.45
